createdAt,value
2018-11-13T00:03:57.384Z,12.67
2018-11-13T00:08:54.158Z,13.17
2018-11-13T00:13:50.874Z,11.63
2018-11-13T00:18:47.551Z,11.77
2018-11-13T00:23:44.325Z,12.20
2018-11-13T00:28:41.278Z,11.90
2018-11-13T00:33:38.002Z,11.37
2018-11-13T00:38:34.704Z,10.07
2018-11-13T00:43:31.463Z,11.47
2018-11-13T00:48:28.708Z,10.33
2018-11-13T00:53:25.012Z,10.10
2018-11-13T00:58:21.746Z,10.07
2018-11-13T01:03:18.417Z,10.60
2018-11-13T01:08:15.157Z,10.47
2018-11-13T01:13:11.930Z,10.57
2018-11-13T01:18:08.586Z,11.00
2018-11-13T01:23:05.374Z,10.37
2018-11-13T01:28:02.100Z,10.60
2018-11-13T01:32:58.843Z,10.97
2018-11-13T01:37:55.593Z,11.00
2018-11-13T01:42:52.313Z,11.03
2018-11-13T01:47:49.041Z,10.10
2018-11-13T01:52:45.879Z,10.50
2018-11-13T01:57:42.876Z,9.93
2018-11-13T02:02:39.611Z,9.57
2018-11-13T02:07:36.324Z,9.37
2018-11-13T02:12:33.131Z,10.13
2018-11-13T02:17:29.881Z,10.67
2018-11-13T02:22:26.567Z,10.03
2018-11-13T02:27:23.304Z,9.23
2018-11-13T02:32:19.984Z,10.47
2018-11-13T02:37:16.716Z,9.30
2018-11-13T02:42:13.388Z,9.67
2018-11-13T02:47:10.069Z,9.73
2018-11-13T02:52:06.780Z,10.00
2018-11-13T02:57:03.483Z,9.87
2018-11-13T03:02:00.357Z,10.83
2018-11-13T03:06:57.804Z,9.87
2018-11-13T03:11:54.577Z,10.50
2018-11-13T03:16:51.459Z,9.37
2018-11-13T03:21:48.126Z,10.10
2018-11-13T03:26:44.931Z,9.33
2018-11-13T03:31:41.873Z,9.80
2018-11-13T03:36:38.745Z,9.67
2018-11-13T03:41:35.577Z,9.83
2018-11-13T03:46:32.346Z,9.20
2018-11-13T03:51:29.101Z,9.23
2018-11-13T03:56:25.862Z,9.57
2018-11-13T04:01:22.654Z,10.17
2018-11-13T04:06:19.464Z,9.73
2018-11-13T04:11:16.178Z,9.93
2018-11-13T04:16:12.898Z,9.10
2018-11-13T04:21:09.677Z,10.00
2018-11-13T04:26:06.491Z,9.67
2018-11-13T04:31:03.210Z,9.27
2018-11-13T04:35:59.883Z,9.37
2018-11-13T04:40:56.646Z,8.37
2018-11-13T04:45:53.512Z,8.87
2018-11-13T04:50:50.250Z,9.20
2018-11-13T04:55:46.940Z,9.30
2018-11-13T05:00:43.706Z,9.33
2018-11-13T05:05:40.482Z,9.37
2018-11-13T05:10:37.250Z,9.53
2018-11-13T05:15:33.954Z,8.80
2018-11-13T05:20:30.822Z,9.00
2018-11-13T05:25:27.598Z,8.33
2018-11-13T05:30:24.342Z,8.83
2018-11-13T05:35:21.798Z,8.27
2018-11-13T05:40:19.834Z,8.23
2018-11-13T05:45:18.153Z,8.27
2018-11-13T05:50:15.905Z,7.73
2018-11-13T05:55:13.708Z,8.27
2018-11-13T06:00:11.754Z,8.20
2018-11-13T06:05:09.163Z,7.57
2018-11-13T06:10:06.578Z,8.00
2018-11-13T06:15:03.374Z,7.33
2018-11-13T06:20:00.151Z,7.70
2018-11-13T06:24:56.924Z,7.30
2018-11-13T06:29:54.164Z,7.77
2018-11-13T06:34:51.104Z,7.83
2018-11-13T06:39:47.845Z,7.60
2018-11-13T06:44:44.584Z,7.77
2018-11-13T06:49:41.354Z,7.90
2018-11-13T06:54:43.797Z,7.50
2018-11-13T06:59:40.514Z,7.53
2018-11-13T07:04:38.158Z,7.83
2018-11-13T07:09:34.897Z,7.57
2018-11-13T07:14:31.716Z,6.97
2018-11-13T07:19:28.476Z,7.77
2018-11-13T07:24:25.199Z,7.87
2018-11-13T07:29:21.902Z,7.60
2018-11-13T07:34:18.942Z,8.17
2018-11-13T07:39:15.571Z,8.83
2018-11-13T07:44:12.289Z,8.97
2018-11-13T07:49:09.035Z,8.00
2018-11-13T07:54:05.913Z,7.50
2018-11-13T07:59:02.627Z,7.63
2018-11-13T08:03:59.361Z,8.30
2018-11-13T08:08:56.394Z,8.40
2018-11-13T08:13:53.157Z,8.13
2018-11-13T08:18:49.953Z,8.47
2018-11-13T08:23:46.651Z,8.50
2018-11-13T08:28:43.432Z,8.47
2018-11-13T08:33:40.167Z,8.40
2018-11-13T08:38:37.067Z,8.67
2018-11-13T08:43:33.759Z,9.27
2018-11-13T08:48:30.545Z,9.37
2018-11-13T08:53:27.323Z,8.40
2018-11-13T08:58:24.176Z,8.70
2018-11-13T09:03:20.990Z,12.77
2018-11-13T09:08:17.764Z,15.23
2018-11-13T09:13:14.512Z,12.40
2018-11-13T09:18:11.255Z,10.10
2018-11-13T09:23:08.009Z,9.57
2018-11-13T09:28:05.023Z,9.03
2018-11-13T09:33:01.826Z,18.40
2018-11-13T09:37:58.471Z,17.40
2018-11-13T09:42:55.258Z,13.77
2018-11-13T09:47:52.027Z,12.00
2018-11-13T09:52:51.080Z,9.70
2018-11-13T09:57:48.067Z,9.40
2018-11-13T10:02:46.873Z,9.27
2018-11-13T10:07:43.833Z,8.27
2018-11-13T10:12:40.631Z,8.33
2018-11-13T10:17:37.681Z,8.30
2018-11-13T10:22:34.384Z,8.67
2018-11-13T10:27:31.188Z,9.67
2018-11-13T10:32:27.873Z,10.80
2018-11-13T10:37:24.571Z,9.67
2018-11-13T10:42:21.327Z,10.90
2018-11-13T10:47:18.027Z,10.33
2018-11-13T10:52:14.753Z,10.20
2018-11-13T10:57:11.775Z,10.00
2018-11-13T11:02:14.117Z,10.07
2018-11-13T11:07:10.767Z,8.63
2018-11-13T11:12:07.456Z,9.30
2018-11-13T11:17:04.182Z,8.77
2018-11-13T11:22:01.226Z,8.47
2018-11-13T11:26:57.957Z,8.00
2018-11-13T11:31:54.623Z,8.00
2018-11-13T11:36:51.361Z,7.03
2018-11-13T11:41:48.145Z,7.50
2018-11-13T11:46:44.871Z,7.20
2018-11-13T11:51:41.555Z,6.43
2018-11-13T11:56:38.284Z,5.93
2018-11-13T12:01:35.036Z,5.40
2018-11-13T12:06:31.779Z,4.93
2018-11-13T12:11:28.520Z,4.03
2018-11-13T12:16:25.243Z,5.40
2018-11-13T12:21:22.035Z,4.57
2018-11-13T12:26:18.754Z,4.50
2018-11-13T12:31:15.492Z,3.40
2018-11-13T12:36:12.482Z,3.00
2018-11-13T12:41:09.193Z,2.70
2018-11-13T12:46:05.961Z,3.33
2018-11-13T12:51:03.597Z,2.50
2018-11-13T12:56:00.635Z,2.80
2018-11-13T13:00:57.343Z,3.20
2018-11-13T13:05:54.063Z,2.60
2018-11-13T13:10:50.812Z,2.60
2018-11-13T13:15:47.550Z,2.23
2018-11-13T13:20:44.352Z,1.90
2018-11-13T13:25:41.348Z,1.70
2018-11-13T13:30:38.084Z,1.80
2018-11-13T13:35:42.672Z,2.10
2018-11-13T13:40:40.632Z,2.20
2018-11-13T13:45:37.825Z,1.90
2018-11-13T13:50:34.531Z,1.83
2018-11-13T13:55:31.317Z,1.80
2018-11-13T14:00:28.152Z,1.80
2018-11-13T14:05:24.847Z,1.37
2018-11-13T14:10:21.566Z,1.50
2018-11-13T14:15:18.603Z,1.80
2018-11-13T14:20:16.409Z,2.10
2018-11-13T14:25:13.865Z,2.80
2018-11-13T14:30:18.169Z,2.80
2018-11-13T14:35:15.390Z,2.40
2018-11-13T14:40:15.002Z,3.07
2018-11-13T14:45:11.751Z,2.20
2018-11-13T14:50:09.946Z,2.20
2018-11-13T14:55:07.610Z,2.07
2018-11-13T15:00:05.248Z,1.60
2018-11-13T15:05:01.984Z,1.97
2018-11-13T15:09:58.702Z,1.60
2018-11-13T15:14:55.433Z,2.70
2018-11-13T15:19:52.161Z,2.50
2018-11-13T15:24:48.864Z,2.10
2018-11-13T15:29:45.602Z,2.33
2018-11-13T15:34:42.419Z,2.67
2018-11-13T15:39:39.117Z,2.60
2018-11-13T15:44:35.919Z,3.00
2018-11-13T15:49:32.629Z,4.00
2018-11-13T15:54:29.384Z,6.87
2018-11-13T15:59:26.082Z,5.90
2018-11-13T16:04:22.806Z,4.00
2018-11-13T16:09:19.727Z,6.27
2018-11-13T16:14:16.434Z,4.87
2018-11-13T16:19:13.227Z,7.87
2018-11-13T16:24:09.954Z,4.60
2018-11-13T16:29:06.783Z,14.57
2018-11-13T16:34:03.504Z,3.90
2018-11-13T16:39:00.175Z,4.63
2018-11-13T16:43:56.940Z,4.93
2018-11-13T16:48:53.680Z,3.87
2018-11-13T16:53:58.169Z,4.13
2018-11-13T16:58:52.737Z,6.80
2018-11-13T17:03:49.558Z,5.77
2018-11-13T17:08:46.129Z,9.27
2018-11-13T17:13:42.874Z,7.30
2018-11-13T17:18:39.611Z,4.23
2018-11-13T17:23:36.381Z,3.57
2018-11-13T17:28:33.102Z,3.87
2018-11-13T17:33:29.789Z,3.60
2018-11-13T17:38:26.638Z,4.93
2018-11-13T17:43:23.387Z,8.27
2018-11-13T17:48:20.092Z,19.80
2018-11-13T17:53:16.928Z,12.00
2018-11-13T17:58:14.437Z,6.47
2018-11-13T18:03:11.936Z,5.17
2018-11-13T18:08:09.359Z,3.10
2018-11-13T18:13:06.628Z,4.07
2018-11-13T18:18:03.837Z,4.23
2018-11-13T18:23:00.704Z,3.90
2018-11-13T18:27:59.088Z,3.93
2018-11-13T18:32:56.352Z,2.83
2018-11-13T18:37:54.072Z,3.47
2018-11-13T18:42:51.308Z,3.60
2018-11-13T18:47:48.057Z,3.47
2018-11-13T18:52:44.720Z,5.03
2018-11-13T18:57:41.871Z,4.57
2018-11-13T19:02:38.937Z,2.87
2018-11-13T19:07:35.652Z,8.47
2018-11-13T19:20:01.235Z,10.10
2018-11-13T19:24:57.817Z,4.50
2018-11-13T19:29:54.520Z,3.60
2018-11-13T19:34:51.303Z,3.40
2018-11-13T19:39:48.034Z,4.60
2018-11-13T19:44:44.837Z,4.90
2018-11-13T19:49:41.723Z,4.83
2018-11-13T19:54:38.542Z,5.10
2018-11-13T19:59:35.227Z,5.70
2018-11-13T20:04:33.068Z,5.77
2018-11-13T20:09:29.744Z,4.80
2018-11-13T20:14:26.556Z,6.50
2018-11-13T20:19:23.336Z,7.00
2018-11-13T20:24:20.032Z,8.30
2018-11-13T20:29:16.860Z,6.47
2018-11-13T20:34:13.600Z,5.30
2018-11-13T20:39:11.688Z,5.83
2018-11-13T20:44:12.344Z,6.30
2018-11-13T20:49:09.287Z,6.10
2018-11-13T20:54:06.130Z,7.00
2018-11-13T20:59:04.401Z,10.80
2018-11-13T21:04:01.184Z,8.03
2018-11-13T21:08:57.921Z,7.40
2018-11-13T21:13:54.676Z,7.57
2018-11-13T21:18:51.429Z,7.50
2018-11-13T21:23:49.227Z,7.13
2018-11-13T21:28:45.972Z,7.77
2018-11-13T21:33:42.805Z,6.10
2018-11-13T21:38:39.653Z,6.07
2018-11-13T21:43:36.411Z,7.17
2018-11-13T21:48:33.124Z,6.60
2018-11-13T21:53:29.892Z,5.17
2018-11-13T21:58:26.848Z,4.50
2018-11-13T22:03:23.654Z,4.47
2018-11-13T22:08:20.566Z,5.00
2018-11-13T22:13:17.189Z,4.77
2018-11-13T22:18:13.907Z,4.80
2018-11-13T22:23:10.696Z,5.83
2018-11-13T22:28:07.607Z,5.30
2018-11-13T22:33:04.503Z,4.50
2018-11-13T22:38:01.218Z,4.77
2018-11-13T22:42:58.873Z,3.97
2018-11-13T22:47:56.061Z,4.40
2018-11-13T22:52:53.118Z,3.87
2018-11-13T22:57:51.261Z,5.40
2018-11-13T23:02:49.390Z,11.90
2018-11-13T23:07:45.909Z,11.13
2018-11-13T23:12:43.034Z,9.33
2018-11-13T23:17:40.737Z,7.57
2018-11-13T23:22:37.484Z,5.00
2018-11-13T23:27:34.307Z,4.60
2018-11-13T23:32:31.004Z,4.40
2018-11-13T23:37:27.898Z,4.07
2018-11-13T23:42:24.659Z,4.30
2018-11-13T23:47:21.355Z,5.30
2018-11-13T23:52:18.129Z,4.10
2018-11-13T23:57:14.917Z,4.63
